Time;durP1;ratioP1;P1;durP2;ratioP2;P2;SDS_P1;SDS_P2;PMS_P1;PMS_P2;Temp;Humidity;BMP_temperature;BMP_pressure;BME280_temperature;BME280_humidity;BME280_pressure;Samples;Min_cycle;Max_cycle;Signal;HPM_P1;HPM_P2
2023/11/26 00:00:40;;;;;;;0.80;0.80;;;;;;;-1.22;81.47;98397.56;5034933;28;20044;-72
2023/11/26 00:03:10;;;;;;;3.53;3.22;;;;;;;-1.22;81.76;98397.56;5034192;28;20517;-73
2023/11/26 00:05:39;;;;;;;0.85;0.85;;;;;;;-1.22;81.70;98392.56;5035308;28;20053;-72
2023/11/26 00:08:08;;;;;;;0.90;0.90;;;;;;;-1.22;81.88;98395.06;5034565;28;20041;-73
2023/11/26 00:10:37;;;;;;;1.63;1.53;;;;;;;-1.22;81.86;98393.38;5035337;28;20286;-74
2023/11/26 00:13:06;;;;;;;0.70;0.70;;;;;;;-1.19;81.76;98392.59;5035040;28;20274;-74
2023/11/26 00:15:35;;;;;;;2.10;1.95;;;;;;;-1.13;81.81;98382.75;5034757;28;20128;-73
2023/11/26 00:18:04;;;;;;;1.47;1.37;;;;;;;-1.11;81.72;98383.63;5035098;28;20041;-73
2023/11/26 00:20:34;;;;;;;3.33;3.03;;;;;;;-1.02;82.34;98388.84;5035009;28;20053;-73
2023/11/26 00:23:03;;;;;;;4.50;2.60;;;;;;;-0.90;82.21;98392.50;5050003;28;20403;-74
2023/11/26 00:25:32;;;;;;;0.85;0.85;;;;;;;-0.90;82.03;98389.13;5034841;28;20068;-73
2023/11/26 00:28:01;;;;;;;1.02;1.02;;;;;;;-0.90;82.16;98397.50;5034560;28;20048;-73
2023/11/26 00:30:31;;;;;;;1.05;1.02;;;;;;;-0.93;81.94;98396.56;5034505;28;20136;-74
2023/11/26 00:33:00;;;;;;;1.33;1.25;;;;;;;-0.94;81.96;98399.91;5034352;28;20041;-73
2023/11/26 00:35:29;;;;;;;1.70;1.23;;;;;;;-0.96;82.10;98392.34;5034411;28;20048;-73
2023/11/26 00:38:00;;;;;;;1.00;0.77;;;;;;;-0.93;82.15;98409.94;5034300;28;20515;-74
2023/11/26 00:40:29;;;;;;;0.68;0.68;;;;;;;-1.00;81.71;98405.59;5034398;28;20116;-73
2023/11/26 00:42:58;;;;;;;3.58;3.22;;;;;;;-0.88;82.53;98410.03;5034084;28;20137;-74
2023/11/26 00:45:27;;;;;;;0.63;0.63;;;;;;;-0.74;82.31;98424.59;5034156;28;20042;-73
2023/11/26 00:47:57;;;;;;;0.70;0.70;;;;;;;-0.80;82.12;98421.94;5033406;28;20488;-73
2023/11/26 00:50:26;;;;;;;4.47;2.45;;;;;;;-0.83;82.13;98434.38;5034125;28;20377;-73
2023/11/26 00:52:55;;;;;;;0.60;0.60;;;;;;;-0.91;81.98;98425.03;5034342;28;20111;-73
2023/11/26 00:55:26;;;;;;;0.60;0.60;;;;;;;-0.89;82.27;98438.41;5049419;28;20369;-74
2023/11/26 00:57:55;;;;;;;1.35;1.27;;;;;;;-0.91;82.52;98430.03;5033988;28;20144;-72
2023/11/26 01:00:25;;;;;;;3.42;3.13;;;;;;;-0.81;82.39;98439.41;5032826;28;20063;-72
2023/11/26 01:02:54;;;;;;;1.33;1.23;;;;;;;-0.83;82.29;98423.53;5049192;28;20120;-73
2023/11/26 01:05:24;;;;;;;0.95;0.95;;;;;;;-0.90;82.42;98414.19;5033800;28;20128;-73
2023/11/26 01:07:52;;;;;;;4.68;2.63;;;;;;;-0.74;82.80;98438.75;5049513;28;20037;-73
2023/11/26 01:10:22;;;;;;;1.17;1.15;;;;;;;-0.71;82.93;98418.78;5032843;28;20045;-73
2023/11/26 01:12:52;;;;;;;1.33;1.23;;;;;;;-0.55;83.03;98433.34;5049064;28;20045;-73
2023/11/26 01:15:22;;;;;;;0.82;0.82;;;;;;;-0.57;82.93;98427.47;5033669;28;20045;-73
2023/11/26 01:17:50;;;;;;;8.25;2.08;;;;;;;-0.70;82.71;98410.50;5033305;28;20407;-73
2023/11/26 01:20:19;;;;;;;2.08;1.73;;;;;;;-0.60;82.58;98434.91;5033598;28;20037;-73
2023/11/26 01:22:49;;;;;;;3.05;2.80;;;;;;;-0.64;83.00;98430.66;5032363;28;20056;-73
2023/11/26 01:25:18;;;;;;;1.38;1.27;;;;;;;-0.73;82.87;98430.44;5032518;28;20103;-73
2023/11/26 01:27:47;;;;;;;0.60;0.60;;;;;;;-0.72;82.98;98442.16;5048908;28;20049;-73
2023/11/26 01:30:18;;;;;;;8.70;3.75;;;;;;;-0.73;83.12;98441.31;5048917;28;20553;-73
2023/11/26 01:32:47;;;;;;;1.15;1.15;;;;;;;-0.78;83.27;98417.81;5033531;28;20041;-73
2023/11/26 01:35:16;;;;;;;1.63;1.52;;;;;;;-0.62;83.64;98434.03;5032223;28;20091;-74
2023/11/26 01:37:45;;;;;;;0.68;0.60;;;;;;;-0.69;83.21;98419.69;5033783;28;20121;-73
2023/11/26 01:40:14;;;;;;;0.70;0.70;;;;;;;-0.61;83.22;98422.34;5033503;28;20488;-73
2023/11/26 01:42:44;;;;;;;1.48;1.38;;;;;;;-0.61;83.26;98430.72;5033195;28;20064;-73
2023/11/26 01:45:13;;;;;;;1.05;0.98;;;;;;;-0.53;83.42;98434.25;5048929;28;20045;-73
2023/11/26 01:47:44;;;;;;;1.23;1.10;;;;;;;-0.53;83.36;98429.25;5049108;28;20046;-74
2023/11/26 01:50:21;;;;;;;4.00;3.70;;;;;;;-0.60;83.52;98432.41;5049100;28;20128;-73
2023/11/26 01:52:51;;;;;;;2.67;1.17;;;;;;;-0.60;83.53;98432.41;5033662;28;20132;-73
2023/11/26 01:55:21;;;;;;;1.88;1.70;;;;;;;-0.61;83.31;98428.22;5033497;28;20056;-73
2023/11/26 01:57:50;;;;;;;5.70;2.65;;;;;;;-0.75;83.56;98407.03;5033177;28;20053;-73
2023/11/26 02:00:21;;;;;;;1.08;0.70;;;;;;;-0.62;83.59;98428.19;5048921;28;20115;-73
2023/11/26 02:02:52;;;;;;;2.92;1.23;;;;;;;-0.64;83.80;98420.63;5032183;28;20046;-74
2023/11/26 02:05:21;;;;;;;0.75;0.75;;;;;;;-0.64;83.71;98425.63;5033174;28;20053;-74
2023/11/26 02:07:51;;;;;;;0.90;0.90;;;;;;;-0.63;83.67;98427.34;5033105;28;20054;-72
2023/11/26 02:10:23;;;;;;;0.32;0.32;;;;;;;-0.61;83.71;98423.22;5033398;28;20405;-74
2023/11/26 02:13:03;;;;;;;1.27;1.17;;;;;;;-0.60;84.17;98422.38;5048484;28;20108;-74
2023/11/26 02:15:35;;;;;;;0.50;0.50;;;;;;;-0.64;83.60;98418.13;5048637;28;20104;-73
2023/11/26 02:18:05;;;;;;;3.17;2.95;;;;;;;-0.72;83.48;98422.13;5033019;28;20041;-73
2023/11/26 02:20:36;;;;;;;1.52;1.42;;;;;;;-0.70;83.72;98415.50;5033063;28;20061;-73
2023/11/26 02:23:05;;;;;;;3.75;2.28;;;;;;;-0.74;83.94;98417.06;5031669;28;20038;-74
2023/11/26 02:25:35;;;;;;;0.82;0.82;;;;;;;-0.82;83.55;98421.06;5033743;28;20042;-73
2023/11/26 02:28:05;;;;;;;0.63;0.63;;;;;;;-0.83;83.61;98428.53;5032893;28;20046;-74
2023/11/26 02:30:35;;;;;;;0.60;0.55;;;;;;;-0.81;83.56;98421.91;5035034;28;20104;-73
2023/11/26 02:33:04;;;;;;;0.55;0.55;;;;;;;-0.86;83.76;98423.44;5035497;28;20076;-74
2023/11/26 02:35:33;;;;;;;0.73;0.60;;;;;;;-0.98;83.34;98413.13;5036669;28;20148;-73
2023/11/26 02:38:03;;;;;;;1.35;1.25;;;;;;;-0.90;83.45;98436.72;5036515;28;20049;-73
2023/11/26 02:40:32;;;;;;;;;;;;;;;-0.87;83.40;98441.78;5035696;28;20041;-73
2023/11/26 02:43:02;;;;;;;1.40;1.30;;;;;;;-0.92;83.35;98438.34;5036295;28;19925;-73
2023/11/26 02:45:31;;;;;;;1.38;0.77;;;;;;;-0.94;83.36;98444.97;5036511;28;20053;-73
2023/11/26 02:48:00;;;;;;;0.93;0.93;;;;;;;-1.01;83.42;98438.94;5035572;28;20135;-74
2023/11/26 02:50:31;;;;;;;1.02;1.02;;;;;;;-1.11;83.83;98441.19;5036663;28;20496;-74
2023/11/26 02:53:01;;;;;;;1.23;1.13;;;;;;;-1.05;83.76;98436.31;5035222;28;20045;-75
2023/11/26 02:55:30;;;;;;;1.83;1.73;;;;;;;-1.01;83.90;98438.13;5036419;28;20049;-75
2023/11/26 02:57:59;;;;;;;1.05;1.02;;;;;;;-0.98;84.23;98433.16;5036321;28;20046;-72
2023/11/26 03:00:30;;;;;;;1.73;1.60;;;;;;;-0.98;84.35;98443.19;5036424;28;20423;-73
2023/11/26 03:02:59;;;;;;;2.47;1.75;;;;;;;-0.89;84.37;98439.25;5036545;28;20050;-73
2023/11/26 03:05:28;;;;;;;0.77;0.77;;;;;;;-0.83;84.50;98448.56;5035635;28;20506;-74
2023/11/26 03:08:08;;;;;;;1.15;1.10;;;;;;;-0.85;84.06;98437.66;5035271;28;20423;-73
2023/11/26 03:13:20;;;;;;;0.60;0.60;;;;;;;-0.67;84.60;98450.59;5035527;28;20045;-73
2023/11/26 03:15:53;;;;;;;0.70;0.70;;;;;;;-0.61;84.41;98458.28;5036717;28;20053;-73
2023/11/26 03:18:23;;;;;;;2.75;2.58;;;;;;;-0.60;84.66;98452.44;5035989;28;20046;-74
2023/11/26 03:20:54;;;;;;;0.70;0.70;;;;;;;-0.61;84.53;98453.28;5035954;28;20056;-73
2023/11/26 03:23:24;;;;;;;2.40;2.08;;;;;;;-0.68;84.40;98446.44;5035026;28;20045;-73
2023/11/26 03:25:54;;;;;;;1.40;1.33;;;;;;;-0.61;84.54;98457.44;5035042;28;20578;-74
2023/11/26 03:28:23;;;;;;;1.23;1.13;;;;;;;-0.63;84.23;98459.91;5035794;28;20041;-73
2023/11/26 03:30:54;;;;;;;0.82;0.82;;;;;;;-0.72;84.03;98462.22;5034884;28;20087;-73
2023/11/26 03:33:24;;;;;;;0.88;0.85;;;;;;;-0.71;84.18;98469.75;5035736;28;20557;-73
2023/11/26 03:35:53;;;;;;;0.75;0.75;;;;;;;-0.73;84.03;98475.53;5034414;28;20092;-73
2023/11/26 03:38:22;;;;;;;0.68;0.68;;;;;;;-0.91;84.37;98470.91;5051108;28;20492;-74
2023/11/26 03:40:51;;;;;;;2.05;1.92;;;;;;;-1.23;84.13;98411.72;5034025;28;20056;-74
2023/11/26 03:43:20;;;;;;;0.75;0.75;;;;;;;-0.83;84.02;98481.97;5050612;28;20059;-74
2023/11/26 03:45:49;;;;;;;0.93;0.93;;;;;;;-0.74;83.95;98473.81;5051206;28;20400;-72
2023/11/26 03:48:21;;;;;;;3.65;3.22;;;;;;;-0.70;83.77;98485.63;5035530;28;20050;-74
2023/11/26 03:50:50;;;;;;;2.78;2.58;;;;;;;-0.77;83.88;98483.78;5050856;28;20045;-73
2023/11/26 03:53:19;;;;;;;1.88;1.77;;;;;;;-0.83;83.71;98473.59;5035681;28;20045;-74
2023/11/26 03:55:49;;;;;;;2.03;1.33;;;;;;;-0.84;83.71;98486.94;5035334;28;20069;-75
2023/11/26 03:58:18;;;;;;;1.48;1.38;;;;;;;-0.82;83.81;98490.34;5035658;28;20041;-76
2023/11/26 04:00:47;;;;;;;0.70;0.70;;;;;;;-0.78;83.93;98489.59;5051131;28;20034;-76
2023/11/26 04:03:16;;;;;;;3.78;3.50;;;;;;;-0.75;84.18;98479.66;5050551;28;20120;-76
2023/11/26 04:05:47;;;;;;;3.60;3.30;;;;;;;-0.69;83.86;98493.16;5035474;28;20403;-76
2023/11/26 04:08:15;;;;;;;1.45;1.35;;;;;;;-0.65;83.92;98489.09;5035106;28;20064;-75
2023/11/26 04:10:44;;;;;;;6.53;2.10;;;;;;;-0.56;84.09;98489.28;5035343;28;20041;-75
2023/11/26 04:13:13;;;;;;;3.30;2.30;;;;;;;-0.48;84.38;98487.78;5035114;28;20307;-75
2023/11/26 04:15:45;;;;;;;1.23;1.15;;;;;;;-0.47;83.69;98484.50;5034940;28;20034;-75
2023/11/26 04:18:15;;;;;;;0.80;0.80;;;;;;;-0.45;83.87;98492.88;5035276;28;20041;-76
2023/11/26 04:20:47;;;;;;;2.78;2.58;;;;;;;-0.39;84.42;98498.06;5034820;28;20037;-76
2023/11/26 04:23:19;;;;;;;1.92;1.80;;;;;;;-0.44;84.06;98499.59;5034789;28;20069;-76
2023/11/26 04:25:48;;;;;;;2.30;0.90;;;;;;;-0.41;83.94;98509.72;5034803;28;20508;-76
2023/11/26 04:28:17;;;;;;;0.55;0.55;;;;;;;-0.35;84.43;98507.31;5034753;28;20042;-76
2023/11/26 04:30:46;;;;;;;2.05;1.75;;;;;;;-0.35;84.33;98508.97;5034983;28;20038;-76
2023/11/26 04:33:18;;;;;;;;;;;;;;;-0.32;84.49;98504.03;5035530;28;20049;-76
2023/11/26 04:35:47;;;;;;;2.97;2.67;;;;;;;-0.35;84.17;98514.84;5037053;28;20438;-76
2023/11/26 04:38:18;;;;;;;1.08;1.05;;;;;;;-0.32;84.26;98519.09;5034793;28;20488;-76
2023/11/26 04:40:47;;;;;;;2.53;2.33;;;;;;;-0.29;84.24;98525.00;5034567;28;20087;-76
2023/11/26 04:43:16;;;;;;;1.93;1.77;;;;;;;-0.25;83.93;98524.28;5033077;28;20042;-76
2023/11/26 04:45:45;;;;;;;2.72;2.50;;;;;;;-0.21;84.10;98528.53;5034418;28;20034;-76
2023/11/26 04:48:14;;;;;;;2.88;2.65;;;;;;;-0.33;84.37;98519.88;5034358;28;20084;-76
2023/11/26 04:50:43;;;;;;;1.77;1.67;;;;;;;-0.53;84.27;98501.91;5034304;28;20091;-76
2023/11/26 04:53:12;;;;;;;1.67;1.57;;;;;;;-0.27;83.94;98547.59;5033615;28;20045;-77
2023/11/26 04:55:42;;;;;;;1.38;1.20;;;;;;;-0.28;84.12;98549.25;5034299;28;20045;-77
2023/11/26 04:58:11;;;;;;;0.90;0.90;;;;;;;-0.26;84.50;98555.16;5034247;28;20068;-77
2023/11/26 05:00:40;;;;;;;1.40;1.30;;;;;;;-0.24;84.37;98557.72;5034113;28;20037;-75
2023/11/26 05:03:09;;;;;;;2.87;2.40;;;;;;;-0.22;84.46;98561.09;5034024;28;20274;-77
2023/11/26 05:05:38;;;;;;;0.85;0.73;;;;;;;-0.13;85.00;98576.34;5034262;28;20291;-76
2023/11/26 05:08:08;;;;;;;3.65;3.08;;;;;;;-0.12;84.61;98568.84;5034309;28;20390;-77
2023/11/26 05:10:37;;;;;;;1.08;1.08;;;;;;;-0.14;84.58;98575.50;5034009;28;20057;-77
2023/11/26 05:13:07;;;;;;;1.03;1.00;;;;;;;-0.10;84.92;98578.94;5033892;28;20038;-77
2023/11/26 05:15:36;;;;;;;1.98;1.85;;;;;;;-0.09;84.56;98588.13;5034002;28;20048;-77
2023/11/26 05:18:06;;;;;;;0.80;0.80;;;;;;;-0.07;85.04;98584.84;5033845;28;20049;-77
2023/11/26 05:20:36;;;;;;;1.45;1.38;;;;;;;-0.08;85.09;98585.69;5034118;28;20103;-78
2023/11/26 05:23:05;;;;;;;1.15;1.13;;;;;;;-0.11;84.44;98590.63;5033927;28;20051;-78
2023/11/26 05:25:33;;;;;;;2.15;1.00;;;;;;;-0.10;84.54;98591.47;5033903;28;20041;-77
2023/11/26 05:28:02;;;;;;;0.43;0.37;;;;;;;-0.06;85.09;98604.09;5032742;28;20053;-77
2023/11/26 05:30:33;;;;;;;1.02;0.90;;;;;;;0.01;84.93;98615.13;5033695;28;20382;-77
2023/11/26 05:33:02;;;;;;;1.25;1.20;;;;;;;-0.05;85.08;98615.00;5033991;28;20115;-77
2023/11/26 05:35:31;;;;;;;1.38;1.02;;;;;;;-0.10;85.09;98617.38;5033620;28;20056;-75
2023/11/26 05:38:00;;;;;;;1.40;1.30;;;;;;;-0.06;85.28;98633.34;5033700;28;20037;-76
2023/11/26 05:40:29;;;;;;;4.03;1.80;;;;;;;-0.04;85.32;98625.03;5033707;28;20514;-77
2023/11/26 05:42:58;;;;;;;1.20;1.10;;;;;;;0.01;85.23;98630.16;5033790;28;20554;-77
2023/11/26 05:45:27;;;;;;;1.13;1.10;;;;;;;0.05;85.29;98626.91;5034050;28;20045;-75
2023/11/26 05:47:58;;;;;;;0.60;0.60;;;;;;;0.10;85.30;98629.56;5049400;28;20124;-74
2023/11/26 05:50:27;;;;;;;0.80;0.80;;;;;;;0.17;85.36;98626.38;5033739;28;20064;-75
2023/11/26 05:52:56;;;;;;;0.77;0.77;;;;;;;0.13;85.50;98624.59;5033418;28;20488;-74
2023/11/26 05:55:25;;;;;;;0.35;0.35;;;;;;;0.27;85.69;98638.28;5033516;28;20042;-75
2023/11/26 05:57:54;;;;;;;1.23;1.17;;;;;;;0.37;85.85;98635.16;5033354;28;20045;-74
2023/11/26 06:00:24;;;;;;;0.32;0.32;;;;;;;0.44;85.67;98637.00;5033351;28;20064;-73
2023/11/26 06:02:53;;;;;;;0.60;0.60;;;;;;;0.48;85.51;98633.78;5033300;28;20041;-73
2023/11/26 06:05:23;;;;;;;;;;;;;;;0.49;86.05;98635.44;5035911;28;20046;-74
2023/11/26 06:07:52;;;;;;;0.50;0.50;;;;;;;0.55;85.59;98635.59;5037928;28;19921;-73
2023/11/26 06:10:21;;;;;;;1.37;1.10;;;;;;;0.60;86.17;98644.06;5037506;28;20045;-74
2023/11/26 06:12:50;;;;;;;0.47;0.47;;;;;;;0.66;86.39;98646.69;5052703;28;20037;-74
2023/11/26 06:15:19;;;;;;;0.40;0.40;;;;;;;0.72;86.42;98654.34;5037446;28;20072;-74
2023/11/26 06:17:48;;;;;;;0.40;0.40;;;;;;;0.62;85.80;98629.88;5037572;28;20069;-74
2023/11/26 06:20:18;;;;;;;0.60;0.60;;;;;;;0.80;85.83;98652.84;5037480;28;20549;-74
2023/11/26 06:22:48;;;;;;;0.80;0.80;;;;;;;0.86;86.15;98653.00;5037263;28;20519;-74
2023/11/26 06:25:17;;;;;;;1.55;1.45;;;;;;;0.89;86.52;98647.19;5037225;28;20470;-74
2023/11/26 06:27:46;;;;;;;0.90;0.90;;;;;;;0.92;86.48;98653.09;5037149;28;20128;-74
2023/11/26 06:30:15;;;;;;;1.02;1.02;;;;;;;0.99;85.88;98647.41;5037169;28;20128;-74
2023/11/26 06:32:44;;;;;;;1.75;1.65;;;;;;;1.04;85.84;98653.34;5036935;28;20052;-74
2023/11/26 06:35:13;;;;;;;1.75;1.10;;;;;;;1.11;86.31;98651.81;5036969;28;20053;-75
2023/11/26 06:37:42;;;;;;;0.50;0.50;;;;;;;1.15;85.23;98656.91;5036819;28;20040;-75
2023/11/26 06:40:13;;;;;;;1.13;1.02;;;;;;;1.12;85.92;98661.91;5035470;28;20034;-77
2023/11/26 06:42:43;;;;;;;1.58;1.48;;;;;;;1.17;85.64;98675.41;5036822;28;20496;-75
2023/11/26 06:45:12;;;;;;;0.57;0.57;;;;;;;1.32;85.27;98699.97;5036802;28;20037;-77
2023/11/26 06:47:41;;;;;;;2.55;1.40;;;;;;;1.37;85.29;98717.69;5036990;28;20112;-77
2023/11/26 06:50:10;;;;;;;1.50;1.33;;;;;;;1.14;85.20;98665.28;5036745;28;20045;-75
2023/11/26 06:52:39;;;;;;;1.02;0.70;;;;;;;1.31;85.07;98699.13;5036447;28;20395;-76
2023/11/26 06:55:10;;;;;;;0.50;0.50;;;;;;;1.19;85.76;98698.03;5036810;28;20037;-82
2023/11/26 06:57:40;;;;;;;0.40;0.40;;;;;;;1.13;85.78;98701.25;5036892;28;20049;-83
2023/11/26 07:00:11;;;;;;;0.47;0.47;;;;;;;1.09;85.45;98697.00;5036826;28;20128;-79
2023/11/26 07:02:41;;;;;;;0.43;0.43;;;;;;;1.09;86.07;98702.03;5035497;28;20555;-78
2023/11/26 07:05:12;;;;;;;1.58;1.45;;;;;;;1.12;85.86;98702.09;5035276;28;20379;-76
2023/11/26 07:07:41;;;;;;;0.40;0.40;;;;;;;1.20;86.49;98714.81;5035455;28;20491;-81
2023/11/26 07:10:10;;;;;;;4.93;1.23;;;;;;;1.20;85.76;98705.59;5036729;28;20044;-80
2023/11/26 07:12:41;;;;;;;0.95;0.95;;;;;;;1.22;85.97;98711.50;5036259;28;20361;-78
2023/11/26 07:15:11;;;;;;;0.55;0.55;;;;;;;1.24;86.38;98714.91;5035684;28;20041;-82
2023/11/26 07:17:39;;;;;;;0.63;0.63;;;;;;;1.24;86.59;98712.41;5038979;28;20072;-82
2023/11/26 07:20:17;;;;;;;0.30;0.30;;;;;;;1.28;85.98;98724.19;5035622;28;20124;-82
2023/11/26 07:22:46;;;;;;;0.77;0.77;;;;;;;1.27;86.09;98725.00;5036141;28;20045;-82
2023/11/26 07:25:16;;;;;;;3.03;1.10;;;;;;;1.28;86.11;98729.22;5036014;28;20049;-82
2023/11/26 07:27:47;;;;;;;1.48;0.65;;;;;;;1.31;85.22;98729.28;5035956;28;20046;-81
2023/11/26 07:30:18;;;;;;;0.40;0.40;;;;;;;0.82;85.31;98635.31;5034597;28;20113;-79
2023/11/26 07:32:50;;;;;;;0.40;0.40;;;;;;;1.43;85.40;98738.75;5001562;28;20099;-79
2023/11/26 07:35:19;;;;;;;0.77;0.77;;;;;;;1.50;85.11;98737.19;5035736;28;20155;-78
2023/11/26 07:37:48;;;;;;;3.85;0.82;;;;;;;1.64;85.18;98740.81;5035894;28;20041;-78
2023/11/26 07:40:17;;;;;;;0.38;0.38;;;;;;;1.71;84.56;98747.66;5035583;28;20049;-78
2023/11/26 07:42:49;;;;;;;5.47;1.13;;;;;;;1.81;84.96;98749.53;5035456;28;20049;-78
2023/11/26 07:45:19;;;;;;;0.75;0.75;;;;;;;1.34;83.35;98664.00;5051138;28;20045;-78
2023/11/26 07:47:52;;;;;;;0.40;0.40;;;;;;;1.85;83.79;98753.78;5028650;28;20132;-76
2023/11/26 07:50:22;;;;;;;0.35;0.35;;;;;;;1.86;82.62;98751.31;5021975;28;20041;-78
2023/11/26 07:52:51;;;;;;;0.40;0.40;;;;;;;1.60;82.39;98696.31;5021811;28;20052;-80
2023/11/26 07:55:20;;;;;;;0.40;0.40;;;;;;;1.93;82.52;98763.19;5015843;28;20125;-79
2023/11/26 07:57:51;;;;;;;2.05;1.50;;;;;;;1.89;81.19;98755.56;5015841;28;20096;-78
2023/11/26 08:00:22;;;;;;;0.68;0.68;;;;;;;1.84;80.37;98752.97;5014725;28;20397;-78
2023/11/26 08:02:51;;;;;;;0.32;0.32;;;;;;;1.58;79.28;98728.13;5014136;28;20046;-79
2023/11/26 08:05:21;;;;;;;0.30;0.30;;;;;;;1.78;79.20;98762.88;5015584;28;20036;-78
2023/11/26 08:07:51;;;;;;;0.47;0.47;;;;;;;1.77;78.97;98770.41;5014485;28;20049;-76
2023/11/26 08:10:26;;;;;;;0.40;0.40;;;;;;;1.72;78.53;98777.03;5016551;28;20050;-76
2023/11/26 08:12:57;;;;;;;0.40;0.40;;;;;;;1.73;77.65;98778.69;5030483;28;20053;-77
2023/11/26 08:15:28;;;;;;;0.50;0.50;;;;;;;1.74;77.48;98780.41;5014287;28;20042;-81
2023/11/26 08:17:57;;;;;;;0.45;0.45;;;;;;;1.71;76.56;98780.34;5016051;28;20092;-80
2023/11/26 08:20:26;;;;;;;0.30;0.30;;;;;;;1.69;75.94;98781.97;5015893;28;20504;-81
2023/11/26 08:22:59;;;;;;;1.20;0.93;;;;;;;1.66;76.01;98776.88;5033538;28;20042;-83
2023/11/26 08:25:33;;;;;;;0.40;0.40;;;;;;;1.66;75.52;98779.41;5015393;28;20311;-77
2023/11/26 08:28:06;;;;;;;7.40;1.17;;;;;;;1.60;76.05;98779.28;5029504;28;20479;-76
2023/11/26 08:30:42;;;;;;;0.52;0.52;;;;;;;1.69;75.67;98797.06;5016027;28;20590;-81
2023/11/26 08:33:12;;;;;;;0.45;0.45;;;;;;;1.70;75.26;98793.75;5016458;28;20050;-80
2023/11/26 08:35:41;;;;;;;0.45;0.45;;;;;;;1.75;75.04;98800.53;5030861;28;20484;-77
2023/11/26 08:38:12;;;;;;;0.50;0.50;;;;;;;1.80;74.45;98801.50;5014688;28;20037;-76
2023/11/26 08:40:44;;;;;;;0.40;0.40;;;;;;;1.86;73.56;98811.69;5014858;28;20377;-79
2023/11/26 08:43:15;;;;;;;0.30;0.30;;;;;;;1.86;73.91;98810.81;5014452;28;20501;-79
2023/11/26 08:45:44;;;;;;;0.40;0.40;;;;;;;1.88;73.96;98815.06;5014664;28;20484;-80
2023/11/26 08:48:23;;;;;;;0.28;0.28;;;;;;;1.91;73.65;98819.31;5132124;27;20398;-76
2023/11/26 08:50:53;;;;;;;0.90;0.90;;;;;;;1.94;72.88;98819.38;5132426;27;20580;-76
2023/11/26 08:53:23;;;;;;;0.30;0.30;;;;;;;1.94;73.17;98829.44;5132198;27;20051;-76
2023/11/26 08:55:52;;;;;;;0.50;0.50;;;;;;;1.93;72.67;98827.72;5132075;27;20043;-77
2023/11/26 08:58:21;;;;;;;0.45;0.45;;;;;;;1.91;72.50;98829.38;5130637;28;20130;-77
2023/11/26 09:00:50;;;;;;;0.28;0.28;;;;;;;1.88;71.83;98839.38;5131734;27;20442;-78
2023/11/26 09:03:19;;;;;;;0.50;0.50;;;;;;;1.88;72.26;98836.84;5132048;27;20465;-80
2023/11/26 09:05:50;;;;;;;0.40;0.40;;;;;;;1.88;71.65;98846.91;5131832;27;20384;-79
2023/11/26 09:08:18;;;;;;;0.57;0.57;;;;;;;1.91;71.44;98844.47;5131481;27;20039;-77
2023/11/26 09:10:48;;;;;;;0.30;0.30;;;;;;;1.88;70.56;98847.78;5130431;28;20039;-78
2023/11/26 09:13:17;;;;;;;;;;;;;;;1.85;69.78;98849.38;5132123;27;20046;-77
2023/11/26 09:15:46;;;;;;;0.50;0.50;;;;;;;1.86;69.42;98858.63;5132171;27;20332;-79
2023/11/26 09:18:15;;;;;;;0.85;0.85;;;;;;;1.78;69.02;98853.44;5131458;27;20039;-78
2023/11/26 09:20:44;;;;;;;0.60;0.60;;;;;;;1.87;68.41;98861.16;5131615;27;20043;-79
2023/11/26 09:23:15;;;;;;;0.30;0.30;;;;;;;1.85;68.39;98864.44;5130377;28;20462;-79
2023/11/26 09:25:44;;;;;;;0.95;0.90;;;;;;;1.85;68.86;98864.44;5131479;27;20043;-79
2023/11/26 09:28:12;;;;;;;0.30;0.30;;;;;;;1.84;67.93;98856.09;5131121;27;20043;-80
2023/11/26 09:30:41;;;;;;;0.30;0.30;;;;;;;1.90;68.13;98862.88;5131214;27;20043;-80
2023/11/26 09:33:10;;;;;;;0.30;0.30;;;;;;;1.97;68.77;98862.19;5131408;27;20047;-79
2023/11/26 09:35:40;;;;;;;0.20;0.20;;;;;;;1.98;67.63;98867.28;5131229;27;20078;-79
2023/11/26 09:38:09;;;;;;;0.77;0.73;;;;;;;1.98;67.15;98867.28;5131366;27;20039;-79
2023/11/26 09:40:42;;;;;;;0.40;0.40;;;;;;;1.97;67.33;98864.69;5131534;27;20036;-79
2023/11/26 09:43:11;;;;;;;0.25;0.25;;;;;;;1.92;66.21;98868.81;5131123;27;20049;-79
2023/11/26 09:45:41;;;;;;;0.40;0.40;;;;;;;2.00;66.40;98877.34;5131000;27;20515;-76
2023/11/26 09:48:09;;;;;;;0.30;0.30;;;;;;;2.01;65.47;98879.06;5130570;27;20080;-74
2023/11/26 09:50:39;;;;;;;0.30;0.30;;;;;;;2.05;65.84;98878.28;5131697;27;20043;-77
2023/11/26 09:53:09;;;;;;;0.40;0.40;;;;;;;2.07;65.18;98894.25;5130645;28;20085;-77
2023/11/26 09:55:40;;;;;;;0.55;0.55;;;;;;;2.16;66.13;98896.13;5130616;27;20048;-77
2023/11/26 09:58:10;;;;;;;2.78;1.00;;;;;;;2.20;65.24;98890.34;5130468;27;20048;-80
2023/11/26 10:00:41;;;;;;;0.30;0.30;;;;;;;2.29;66.00;98893.00;5120552;28;20051;-78
2023/11/26 10:03:10;;;;;;;0.40;0.40;;;;;;;2.44;65.39;98883.25;5116907;28;20141;-77
2023/11/26 10:05:38;;;;;;;0.30;0.30;;;;;;;2.65;66.16;98893.69;5116784;28;20393;-74
2023/11/26 10:08:28;;;;;;;0.40;0.40;;;;;;;2.67;65.26;98897.94;5116936;27;20423;-73
2023/11/26 10:10:57;;;;;;;0.38;0.38;;;;;;;2.65;65.34;98903.78;5116028;28;20047;-75
2023/11/26 10:13:37;;;;;;;0.90;0.90;;;;;;;2.64;65.27;98902.91;5116189;28;20047;-73
2023/11/26 10:16:08;;;;;;;0.30;0.30;;;;;;;2.63;65.26;98906.28;5114703;27;20115;-73
2023/11/26 10:18:41;;;;;;;0.85;0.85;;;;;;;2.62;65.30;98909.59;5114933;28;20039;-71
2023/11/26 10:21:10;;;;;;;0.30;0.30;;;;;;;2.64;64.58;98918.03;5114661;28;20044;-74
2023/11/26 10:23:41;;;;;;;0.38;0.38;;;;;;;2.66;65.41;98913.84;5116048;28;20036;-74
2023/11/26 10:26:26;;;;;;;0.75;0.63;;;;;;;2.68;64.88;98908.88;5114479;28;20049;-74
2023/11/26 10:29:08;;;;;;;0.47;0.47;;;;;;;2.51;65.17;98870.78;5113280;28;20127;-74
2023/11/26 10:31:38;;;;;;;0.80;0.80;;;;;;;2.73;64.46;98900.56;5113445;28;20123;-74
2023/11/26 10:34:14;;;;;;;0.60;0.60;;;;;;;2.82;64.64;98926.72;5114677;28;20119;-73
2023/11/26 10:36:43;;;;;;;0.30;0.30;;;;;;;2.79;63.49;98916.59;5113423;28;20495;-74
2023/11/26 10:39:12;;;;;;;0.30;0.30;;;;;;;2.83;63.03;98923.41;5112364;28;20040;-75
2023/11/26 10:41:42;;;;;;;0.38;0.38;;;;;;;2.87;63.00;98930.19;5113949;28;20043;-73
2023/11/26 10:44:13;;;;;;;0.40;0.40;;;;;;;2.86;62.50;98931.00;5113448;28;20044;-75
2023/11/26 10:46:46;;;;;;;0.30;0.30;;;;;;;2.83;62.83;98923.41;5097272;28;20116;-72
2023/11/26 10:49:19;;;;;;;0.40;0.40;;;;;;;2.82;62.87;98935.16;5115969;28;20048;-75
2023/11/26 10:51:58;;;;;;;0.40;0.40;;;;;;;2.68;62.96;98923.97;5116194;28;20050;-73
2023/11/26 10:54:32;;;;;;;;;;;;;;;2.72;62.91;98946.72;5115191;28;20039;-74
2023/11/26 10:57:10;;;;;;;0.73;0.60;;;;;;;2.70;63.06;98948.38;5116153;28;20380;-75
2023/11/26 10:59:45;;;;;;;0.20;0.20;;;;;;;2.65;63.59;98949.97;5115739;28;20044;-75
2023/11/26 11:02:16;;;;;;;0.40;0.40;;;;;;;2.61;63.69;98952.41;5114367;28;20043;-77
2023/11/26 11:04:48;;;;;;;0.30;0.30;;;;;;;2.51;62.70;98948.00;5115763;28;20047;-74
2023/11/26 11:07:17;;;;;;;0.30;0.30;;;;;;;2.50;63.18;98959.72;5115666;28;20040;-71
2023/11/26 11:09:58;;;;;;;0.40;0.40;;;;;;;2.50;63.92;98957.22;5114833;28;20423;-73
2023/11/26 11:12:33;;;;;;;0.65;0.65;;;;;;;2.55;63.85;98962.34;5115533;28;20043;-75
2023/11/26 11:15:03;;;;;;;2.65;1.85;;;;;;;2.56;64.42;98959.88;5115501;28;20061;-70
2023/11/26 11:17:32;;;;;;;0.57;0.57;;;;;;;2.59;64.08;98959.91;5115442;28;20063;-74
2023/11/26 11:20:02;;;;;;;;;;;;;;;2.63;63.79;98966.72;5115761;28;20050;-74
2023/11/26 11:22:35;;;;;;;0.30;0.30;;;;;;;2.67;64.55;98970.97;5115573;28;19920;-72
2023/11/26 11:25:09;;;;;;;0.25;0.25;;;;;;;2.70;64.16;98972.72;5115605;28;20067;-73
2023/11/26 11:27:54;;;;;;;0.28;0.28;;;;;;;2.73;64.11;98973.59;5114951;28;20043;-74
2023/11/26 11:30:46;;;;;;;0.40;0.40;;;;;;;2.86;64.14;98978.88;5115345;28;20143;-74
2023/11/26 11:33:16;;;;;;;0.35;0.35;;;;;;;2.91;63.30;98969.72;5115395;28;20044;-73
2023/11/26 11:35:45;;;;;;;0.25;0.25;;;;;;;2.91;63.35;98977.28;5115169;28;20059;-73
2023/11/26 11:38:15;;;;;;;0.20;0.20;;;;;;;2.93;63.90;98985.75;5115040;28;20494;-74
2023/11/26 11:41:02;;;;;;;0.20;0.20;;;;;;;2.96;63.83;98985.78;5114939;28;20051;-75
2023/11/26 11:43:31;;;;;;;0.25;0.25;;;;;;;2.92;64.50;98994.13;5114015;28;20499;-74
2023/11/26 11:46:01;;;;;;;1.27;0.90;;;;;;;2.87;64.18;98985.63;5114614;28;20127;-74
2023/11/26 11:48:52;;;;;;;0.40;0.40;;;;;;;2.80;64.89;98992.22;5115396;27;20414;-74
2023/11/26 11:51:34;;;;;;;0.40;0.40;;;;;;;2.70;64.73;98991.19;5114751;28;20497;-76
2023/11/26 11:54:30;;;;;;;1.95;0.82;;;;;;;2.76;65.21;98999.69;5114657;28;20069;-76
2023/11/26 11:57:01;;;;;;;0.50;0.50;;;;;;;2.80;65.64;98996.41;5101274;28;20056;-73